createdAt,value
2018-03-03T00:00:14.342Z,-2.4
2018-03-03T00:01:15.827Z,-2.4
2018-03-03T00:02:17.272Z,-2.4
2018-03-03T00:03:18.689Z,-2.5
2018-03-03T00:04:20.171Z,-2.4
2018-03-03T00:05:21.648Z,-2.5
2018-03-03T00:06:23.091Z,-2.4
2018-03-03T00:07:24.514Z,-2.5
2018-03-03T00:08:25.997Z,-2.5
2018-03-03T00:09:27.411Z,-2.5
2018-03-03T00:10:28.862Z,-2.5
2018-03-03T00:11:30.305Z,-2.5
2018-03-03T00:12:31.764Z,-2.5
2018-03-03T00:13:33.182Z,-2.5
2018-03-03T00:14:34.632Z,-2.5
2018-03-03T00:15:36.077Z,-2.5
2018-03-03T00:16:37.536Z,-2.4
2018-03-03T00:17:39.026Z,-2.6
2018-03-03T00:18:40.541Z,-2.6
2018-03-03T00:19:42.716Z,-2.6
2018-03-03T00:20:44.172Z,-2.6
2018-03-03T00:21:45.637Z,-2.6
2018-03-03T00:22:47.088Z,-2.6
2018-03-03T00:23:48.608Z,-2.7
2018-03-03T00:24:50.034Z,-2.7
2018-03-03T00:25:51.467Z,-2.6
2018-03-03T00:26:52.896Z,-2.7
2018-03-03T00:27:54.324Z,-2.6
2018-03-03T00:28:55.729Z,-2.7
2018-03-03T00:29:57.211Z,-2.7
2018-03-03T00:30:58.636Z,-2.7
2018-03-03T00:32:00.127Z,-2.7
2018-03-03T00:33:01.607Z,-2.7
2018-03-03T00:34:03.041Z,-2.7
2018-03-03T00:35:04.548Z,-2.6
2018-03-03T00:36:06.058Z,-2.7
2018-03-03T00:37:07.532Z,-2.7
2018-03-03T00:38:08.972Z,-2.7
2018-03-03T00:39:10.393Z,-2.7
2018-03-03T00:40:11.797Z,-2.7
2018-03-03T00:41:13.203Z,-2.6
2018-03-03T00:42:14.675Z,-2.6
2018-03-03T00:43:16.179Z,-2.7
2018-03-03T00:44:17.616Z,-2.8
2018-03-03T00:45:19.259Z,-2.7
2018-03-03T00:46:20.713Z,-2.6
2018-03-03T00:47:22.145Z,-2.6
2018-03-03T00:48:23.647Z,-2.7
2018-03-03T00:49:25.066Z,-2.7
2018-03-03T00:50:26.480Z,-2.7
2018-03-03T00:51:27.903Z,-2.7
2018-03-03T00:52:29.329Z,-2.7
2018-03-03T00:53:30.754Z,-2.7
2018-03-03T00:54:32.146Z,-2.6
2018-03-03T00:55:33.538Z,-2.6
2018-03-03T00:56:34.952Z,-2.7
2018-03-03T00:57:36.433Z,-2.7
2018-03-03T00:58:37.797Z,-2.7
2018-03-03T00:59:39.218Z,-2.7
2018-03-03T01:00:40.629Z,-2.7
2018-03-03T01:01:42.042Z,-2.6
2018-03-03T01:02:43.451Z,-2.7
2018-03-03T01:03:44.897Z,-2.6
2018-03-03T01:04:46.349Z,-2.6
2018-03-03T01:05:47.773Z,-2.7
2018-03-03T01:06:49.192Z,-2.8
2018-03-03T01:07:50.599Z,-2.6
2018-03-03T01:08:52.077Z,-2.7
2018-03-03T01:09:53.497Z,-2.7
2018-03-03T01:10:54.917Z,-2.6
2018-03-03T01:11:56.348Z,-2.7
2018-03-03T01:12:57.770Z,-2.5
2018-03-03T01:13:59.237Z,-2.5
2018-03-03T01:15:00.669Z,-2.7
2018-03-03T01:16:02.093Z,-2.7
2018-03-03T01:17:03.535Z,-2.6
2018-03-03T01:18:04.956Z,-2.7
2018-03-03T01:19:06.389Z,-2.8
2018-03-03T01:20:07.876Z,-2.8
2018-03-03T01:21:09.281Z,-2.7
2018-03-03T01:22:10.721Z,-2.7
2018-03-03T01:23:12.128Z,-2.8
2018-03-03T01:24:13.560Z,-2.8
2018-03-03T01:25:15.050Z,-2.7
2018-03-03T01:26:16.475Z,-2.8
2018-03-03T01:27:17.886Z,-2.8
2018-03-03T01:28:19.334Z,-2.7
2018-03-03T01:29:20.735Z,-2.8
2018-03-03T01:30:22.164Z,-2.7
2018-03-03T01:31:23.585Z,-2.7
2018-03-03T01:32:25.035Z,-2.7
2018-03-03T01:33:26.476Z,-2.6
2018-03-03T01:34:27.987Z,-2.7
2018-03-03T01:35:29.396Z,-2.7
2018-03-03T01:36:30.848Z,-2.6
2018-03-03T01:37:32.247Z,-2.6
2018-03-03T01:38:33.696Z,-2.6
2018-03-03T01:39:35.140Z,-2.6
2018-03-03T01:40:36.551Z,-2.5
2018-03-03T01:41:37.968Z,-2.5
2018-03-03T01:42:39.436Z,-2.6
2018-03-03T01:43:40.843Z,-2.6
2018-03-03T01:44:42.260Z,-2.7
2018-03-03T01:45:43.676Z,-2.6
2018-03-03T01:46:45.116Z,-2.7
2018-03-03T01:47:47.449Z,-2.7
2018-03-03T01:48:48.968Z,-2.9
2018-03-03T01:49:50.410Z,-2.9
2018-03-03T01:50:51.804Z,-2.9
2018-03-03T01:51:53.202Z,-2.8
2018-03-03T01:52:54.659Z,-2.8
2018-03-03T01:53:56.120Z,-2.8
2018-03-03T01:54:57.520Z,-2.8
2018-03-03T01:55:58.959Z,-2.8
2018-03-03T01:57:00.430Z,-2.8
2018-03-03T01:58:01.962Z,-2.7
2018-03-03T01:59:03.371Z,-2.8
2018-03-03T02:00:04.890Z,-2.8
2018-03-03T02:01:06.391Z,-2.8
2018-03-03T02:02:07.818Z,-2.6
2018-03-03T02:03:09.253Z,-2.7
2018-03-03T02:04:10.744Z,-2.6
2018-03-03T02:05:12.220Z,-2.7
2018-03-03T02:06:13.680Z,-2.6
2018-03-03T02:07:15.188Z,-2.6
2018-03-03T02:08:16.587Z,-2.6
2018-03-03T02:09:18.061Z,-2.6
2018-03-03T02:10:19.513Z,-2.6
2018-03-03T02:11:20.947Z,-2.6
2018-03-03T02:12:22.394Z,-2.7
2018-03-03T02:13:23.900Z,-2.6
2018-03-03T02:14:25.231Z,-2.6
2018-03-03T02:15:26.650Z,-2.6
2018-03-03T02:16:28.086Z,-2.6
2018-03-03T02:17:29.516Z,-2.6
2018-03-03T02:18:30.944Z,-2.6
2018-03-03T02:19:32.373Z,-2.7
2018-03-03T02:20:33.838Z,-2.7
2018-03-03T02:21:35.219Z,-2.7
2018-03-03T02:22:36.638Z,-2.7
2018-03-03T02:23:38.099Z,-2.7
2018-03-03T02:24:39.558Z,-2.6
2018-03-03T02:25:40.972Z,-2.6
2018-03-03T02:26:42.396Z,-2.5
2018-03-03T02:27:43.828Z,-2.5
2018-03-03T02:28:45.274Z,-2.4
2018-03-03T02:29:46.676Z,-2.5
2018-03-03T02:30:48.115Z,-2.5
2018-03-03T02:31:49.528Z,-2.5
2018-03-03T02:32:50.923Z,-2.6
2018-03-03T02:33:52.335Z,-2.5
2018-03-03T02:34:53.780Z,-2.5
2018-03-03T02:35:55.227Z,-2.4
2018-03-03T02:36:56.624Z,-2.6
2018-03-03T02:37:58.061Z,-2.5
2018-03-03T02:38:59.472Z,-2.5
2018-03-03T02:40:00.880Z,-2.5
2018-03-03T02:41:02.292Z,-2.5
2018-03-03T02:42:03.674Z,-2.6
2018-03-03T02:43:05.091Z,-2.6
2018-03-03T02:44:06.624Z,-2.7
2018-03-03T02:45:08.082Z,-2.7
2018-03-03T02:46:09.580Z,-2.7
2018-03-03T02:47:11.037Z,-2.8
2018-03-03T02:48:12.462Z,-2.7
2018-03-03T02:49:13.884Z,-2.8
2018-03-03T02:50:15.348Z,-2.8
2018-03-03T02:51:16.788Z,-2.8
2018-03-03T02:52:18.208Z,-2.8
2018-03-03T02:53:19.649Z,-2.8
2018-03-03T02:54:21.064Z,-2.8
2018-03-03T02:55:22.495Z,-2.8
2018-03-03T02:56:23.949Z,-2.9
2018-03-03T02:57:25.344Z,-2.9
2018-03-03T02:58:26.762Z,-2.9
2018-03-03T02:59:28.215Z,-2.9
2018-03-03T03:00:29.688Z,-3.0
2018-03-03T03:01:31.111Z,-2.9
2018-03-03T03:02:32.546Z,-3.0
2018-03-03T03:03:33.998Z,-3.1
2018-03-03T03:04:35.472Z,-3.1
2018-03-03T03:05:36.923Z,-2.9
2018-03-03T03:06:38.370Z,-3.1
2018-03-03T03:07:39.784Z,-3.1
2018-03-03T03:08:41.272Z,-3.1
2018-03-03T03:09:42.692Z,-3.1
2018-03-03T03:10:44.138Z,-3.0
2018-03-03T03:11:45.554Z,-3.0
2018-03-03T03:12:46.959Z,-3.0
2018-03-03T03:13:48.383Z,-3.1
2018-03-03T03:14:49.876Z,-3.0
2018-03-03T03:15:51.842Z,-3.0
2018-03-03T03:16:53.231Z,-3.0
2018-03-03T03:17:54.686Z,-2.9
2018-03-03T03:18:56.108Z,-3.0
2018-03-03T03:19:57.535Z,-3.1
2018-03-03T03:20:58.952Z,-3.1
2018-03-03T03:22:00.390Z,-3.1
2018-03-03T03:23:01.838Z,-2.9
2018-03-03T03:24:03.307Z,-3.1
2018-03-03T03:25:04.703Z,-2.9
2018-03-03T03:26:06.138Z,-3.1
2018-03-03T03:27:07.551Z,-3.1
2018-03-03T03:28:08.994Z,-3.0
2018-03-03T03:29:10.435Z,-3.0
2018-03-03T03:30:11.866Z,-3.1
2018-03-03T03:31:13.301Z,-3.0
2018-03-03T03:32:14.763Z,-3.0
2018-03-03T03:33:16.212Z,-3.0
2018-03-03T03:34:17.638Z,-3.0
2018-03-03T03:35:19.084Z,-3.0
2018-03-03T03:36:20.486Z,-3.1
2018-03-03T03:37:22.139Z,-3.1
2018-03-03T03:38:23.966Z,-3.0
2018-03-03T03:39:25.362Z,-3.1
2018-03-03T03:40:27.198Z,-2.9
2018-03-03T03:41:28.826Z,-3.0
2018-03-03T03:42:30.229Z,-3.0
2018-03-03T03:43:31.673Z,-3.0
2018-03-03T03:44:33.104Z,-3.0
2018-03-03T03:45:34.526Z,-3.0
2018-03-03T03:46:35.933Z,-3.0
2018-03-03T03:47:37.376Z,-3.1
2018-03-03T03:48:38.781Z,-3.1
2018-03-03T03:49:40.262Z,-3.2
2018-03-03T03:50:41.685Z,-3.1
2018-03-03T03:51:43.093Z,-3.1
2018-03-03T03:52:44.540Z,-3.2
2018-03-03T03:53:45.936Z,-3.2
2018-03-03T03:54:47.336Z,-3.1
2018-03-03T03:55:48.732Z,-3.2
2018-03-03T03:56:50.122Z,-3.4
2018-03-03T03:57:51.515Z,-3.3
2018-03-03T03:58:52.907Z,-3.3
2018-03-03T03:59:54.298Z,-3.4
2018-03-03T04:00:55.690Z,-3.2
2018-03-03T04:01:57.085Z,-3.3
2018-03-03T04:02:58.476Z,-3.1
2018-03-03T04:03:59.885Z,-3.1
2018-03-03T04:05:01.268Z,-3.2
2018-03-03T04:06:02.658Z,-3.1
2018-03-03T04:07:04.049Z,-3.2
2018-03-03T04:08:05.440Z,-3.2
2018-03-03T04:09:06.829Z,-3.1
2018-03-03T04:10:08.221Z,-3.2
2018-03-03T04:11:09.615Z,-3.2
2018-03-03T04:12:11.010Z,-3.2
2018-03-03T04:13:12.407Z,-3.2
2018-03-03T04:14:13.799Z,-3.2
2018-03-03T04:15:15.194Z,-3.1
2018-03-03T04:16:16.587Z,-3.2
2018-03-03T04:17:17.980Z,-3.3
2018-03-03T04:18:19.370Z,-3.3
2018-03-03T04:19:20.762Z,-3.4
2018-03-03T04:20:22.159Z,-3.3
2018-03-03T04:21:23.543Z,-3.4
2018-03-03T04:22:24.937Z,-3.3
2018-03-03T04:23:26.329Z,-3.4
2018-03-03T04:24:27.721Z,-3.4
2018-03-03T04:25:29.112Z,-3.3
2018-03-03T04:26:30.505Z,-3.3
2018-03-03T04:27:31.895Z,-3.4
2018-03-03T04:28:33.288Z,-3.3
2018-03-03T04:29:34.681Z,-3.5
2018-03-03T04:30:36.072Z,-3.6
2018-03-03T04:31:37.466Z,-3.6
2018-03-03T04:32:38.859Z,-3.6
2018-03-03T04:33:40.273Z,-3.5
2018-03-03T04:34:41.654Z,-3.5
2018-03-03T04:35:43.040Z,-3.5
2018-03-03T04:36:44.429Z,-3.4
2018-03-03T04:37:45.821Z,-3.6
2018-03-03T04:38:47.214Z,-3.6
2018-03-03T04:39:48.605Z,-3.6
2018-03-03T04:40:50.000Z,-3.7
2018-03-03T04:41:51.389Z,-3.6
2018-03-03T04:42:52.780Z,-3.6
2018-03-03T04:43:54.178Z,-3.6
2018-03-03T04:44:55.565Z,-3.6
2018-03-03T04:45:56.950Z,-3.7
2018-03-03T04:46:58.345Z,-3.6
2018-03-03T04:47:59.755Z,-3.7
2018-03-03T04:49:01.146Z,-3.6
2018-03-03T04:50:02.537Z,-3.7
2018-03-03T04:51:03.928Z,-3.8
2018-03-03T04:52:05.326Z,-3.8
2018-03-03T04:53:06.713Z,-3.9
2018-03-03T04:54:08.101Z,-3.9
2018-03-03T04:55:09.500Z,-3.9
2018-03-03T04:56:10.889Z,-4.0
2018-03-03T04:57:12.280Z,-4.2
2018-03-03T04:58:13.670Z,-4.1
2018-03-03T04:59:15.059Z,-4.1
2018-03-03T05:00:16.453Z,-4.1
2018-03-03T05:01:17.844Z,-4.2
2018-03-03T05:02:19.233Z,-4.2
2018-03-03T05:03:20.624Z,-4.2
2018-03-03T05:04:22.017Z,-4.2
2018-03-03T05:05:23.404Z,-4.2
2018-03-03T05:06:24.813Z,-4.2
2018-03-03T05:07:26.206Z,-4.3
2018-03-03T05:08:27.596Z,-4.3
2018-03-03T05:09:28.990Z,-4.3
2018-03-03T05:10:30.377Z,-4.2
2018-03-03T05:11:31.766Z,-4.3
2018-03-03T05:12:33.158Z,-4.4
2018-03-03T05:13:34.552Z,-4.4
2018-03-03T05:14:35.948Z,-4.4
2018-03-03T05:15:37.333Z,-4.4
2018-03-03T05:16:38.725Z,-4.4
2018-03-03T05:17:40.114Z,-4.5
2018-03-03T05:18:41.508Z,-4.5
2018-03-03T05:19:42.894Z,-4.5
2018-03-03T05:20:44.288Z,-4.4
2018-03-03T05:21:45.680Z,-4.3
2018-03-03T05:22:47.072Z,-4.5
2018-03-03T05:23:48.466Z,-4.5
2018-03-03T05:24:49.856Z,-4.4
2018-03-03T05:25:51.244Z,-4.5
2018-03-03T05:26:52.736Z,-4.5
2018-03-03T05:27:54.030Z,-4.4
2018-03-03T05:28:55.417Z,-4.4
2018-03-03T05:29:56.807Z,-4.4
2018-03-03T05:30:58.199Z,-4.4
2018-03-03T05:31:59.586Z,-4.3
2018-03-03T05:33:00.974Z,-4.3
2018-03-03T05:34:02.393Z,-4.4
2018-03-03T05:35:03.784Z,-4.4
2018-03-03T05:36:05.238Z,-4.5
2018-03-03T05:37:06.612Z,-4.4
2018-03-03T05:38:07.994Z,-4.5
2018-03-03T05:39:09.385Z,-4.3
2018-03-03T05:40:10.774Z,-4.3
2018-03-03T05:41:12.165Z,-4.3
2018-03-03T05:42:13.559Z,-4.3
2018-03-03T05:43:14.948Z,-4.4
2018-03-03T05:44:16.369Z,-4.3
2018-03-03T05:45:17.769Z,-4.3
2018-03-03T05:46:19.160Z,-4.3
2018-03-03T05:47:20.550Z,-4.3
2018-03-03T05:48:21.944Z,-4.3
2018-03-03T05:49:23.338Z,-4.3
2018-03-03T05:50:24.737Z,-4.2
2018-03-03T05:51:26.127Z,-4.3
2018-03-03T05:52:27.523Z,-4.3
2018-03-03T05:53:28.916Z,-4.3
2018-03-03T05:54:30.312Z,-4.3
2018-03-03T05:55:31.705Z,-4.3
2018-03-03T05:56:33.098Z,-4.3
2018-03-03T05:57:34.491Z,-4.4
2018-03-03T05:58:35.880Z,-4.6
2018-03-03T05:59:37.275Z,-4.6
2018-03-03T06:00:38.661Z,-4.7
2018-03-03T06:01:40.050Z,-4.6
2018-03-03T06:02:41.453Z,-4.5
2018-03-03T06:03:42.837Z,-4.4
2018-03-03T06:04:44.228Z,-4.3
2018-03-03T06:05:45.618Z,-4.3
2018-03-03T06:06:47.016Z,-4.3
2018-03-03T06:07:48.423Z,-4.4
2018-03-03T06:08:49.756Z,-4.4
2018-03-03T06:09:51.149Z,-4.4
2018-03-03T06:10:52.541Z,-4.5
2018-03-03T06:11:53.928Z,-4.4
2018-03-03T06:12:55.327Z,-4.4
2018-03-03T06:13:56.724Z,-4.4
2018-03-03T06:14:58.114Z,-4.4
2018-03-03T06:15:59.508Z,-4.3
2018-03-03T06:17:00.902Z,-4.3
2018-03-03T06:18:02.299Z,-4.1
2018-03-03T06:19:03.685Z,-4.2
2018-03-03T06:20:05.093Z,-4.4
2018-03-03T06:21:06.506Z,-4.4
2018-03-03T06:22:07.882Z,-4.3
2018-03-03T06:23:09.290Z,-4.3
2018-03-03T06:24:10.670Z,-4.5
2018-03-03T06:25:12.063Z,-4.5
2018-03-03T06:26:13.464Z,-4.7
2018-03-03T06:27:14.853Z,-4.8
2018-03-03T06:28:16.321Z,-4.8
2018-03-03T06:29:17.714Z,-4.9
2018-03-03T06:30:19.105Z,-4.9
2018-03-03T06:31:20.503Z,-4.9
2018-03-03T06:32:21.896Z,-4.9
2018-03-03T06:33:23.289Z,-4.9
2018-03-03T06:34:24.685Z,-4.8
2018-03-03T06:35:26.085Z,-4.9
2018-03-03T06:36:27.472Z,-4.8
2018-03-03T06:37:28.872Z,-4.8
2018-03-03T06:38:30.265Z,-4.6
2018-03-03T06:39:31.660Z,-4.7
2018-03-03T06:40:33.054Z,-4.6
2018-03-03T06:41:34.452Z,-4.9
2018-03-03T06:42:35.847Z,-4.8
2018-03-03T06:43:37.239Z,-4.9
2018-03-03T06:44:38.630Z,-4.8
2018-03-03T06:45:40.028Z,-4.8
2018-03-03T06:46:41.419Z,-4.8
2018-03-03T06:47:42.812Z,-5.0
2018-03-03T06:48:44.214Z,-4.9
2018-03-03T06:49:45.608Z,-5.0
2018-03-03T06:50:47.004Z,-4.9
2018-03-03T06:51:48.390Z,-4.8
2018-03-03T06:52:49.788Z,-4.8
2018-03-03T06:53:51.209Z,-4.7
2018-03-03T06:54:52.576Z,-4.7
2018-03-03T06:55:53.970Z,-4.6
2018-03-03T06:56:55.369Z,-4.6
2018-03-03T06:57:56.762Z,-4.6
2018-03-03T06:58:58.153Z,-4.7
2018-03-03T06:59:59.548Z,-4.6
2018-03-03T07:01:00.940Z,-4.5
2018-03-03T07:02:02.343Z,-4.5
2018-03-03T07:03:03.735Z,-4.4
2018-03-03T07:04:05.131Z,-4.4
2018-03-03T07:05:06.527Z,-4.4
2018-03-03T07:06:07.936Z,-4.4
2018-03-03T07:07:09.334Z,-4.3
2018-03-03T07:08:10.728Z,-4.4
2018-03-03T07:09:12.124Z,-4.4
2018-03-03T07:10:13.527Z,-4.2
2018-03-03T07:11:14.925Z,-4.3
2018-03-03T07:12:16.331Z,-4.2
2018-03-03T07:13:17.723Z,-4.2
2018-03-03T07:14:19.117Z,-4.2
2018-03-03T07:15:20.511Z,-4.1
2018-03-03T07:16:21.913Z,-4.2
2018-03-03T07:17:23.313Z,-4.1
2018-03-03T07:18:24.714Z,-4.3
2018-03-03T07:19:26.113Z,-4.5
2018-03-03T07:20:27.504Z,-4.5
2018-03-03T07:21:28.900Z,-4.4
2018-03-03T07:22:30.346Z,-4.4
2018-03-03T07:23:31.693Z,-4.5
2018-03-03T07:24:33.114Z,-4.5
2018-03-03T07:25:34.513Z,-4.3
2018-03-03T07:26:35.908Z,-4.2
2018-03-03T07:27:37.305Z,-4.3
2018-03-03T07:28:38.706Z,-4.4
2018-03-03T07:29:40.100Z,-4.4
2018-03-03T07:30:41.501Z,-4.4
2018-03-03T07:31:42.902Z,-4.4
2018-03-03T07:32:44.305Z,-4.5
2018-03-03T07:33:45.706Z,-4.5
2018-03-03T07:34:47.100Z,-4.4
2018-03-03T07:35:48.497Z,-4.4
2018-03-03T07:36:49.894Z,-4.3
2018-03-03T07:37:51.281Z,-4.2
2018-03-03T07:38:52.682Z,-4.2
2018-03-03T07:39:54.082Z,-4.1
2018-03-03T07:40:55.475Z,-4.1
2018-03-03T07:41:56.872Z,-4.1
2018-03-03T07:42:58.269Z,-4.0
2018-03-03T07:44:01.035Z,-3.9
2018-03-03T07:45:02.440Z,-3.9
2018-03-03T07:46:03.837Z,-3.9
2018-03-03T07:47:05.598Z,-3.8
2018-03-03T07:48:09.524Z,-3.7
2018-03-03T07:49:11.171Z,-3.6
2018-03-03T07:50:15.295Z,-3.6
2018-03-03T07:51:17.180Z,-3.6
2018-03-03T07:52:18.754Z,-3.5
2018-03-03T07:53:20.371Z,-3.6
2018-03-03T07:54:21.866Z,-3.7
2018-03-03T07:55:23.351Z,-3.6
2018-03-03T07:56:24.898Z,-3.5
2018-03-03T07:57:26.428Z,-3.6
2018-03-03T07:58:27.852Z,-3.4
2018-03-03T07:59:29.337Z,-3.3
2018-03-03T08:00:30.789Z,-3.2
2018-03-03T08:01:32.279Z,-3.1
2018-03-03T08:02:33.752Z,-3.0
2018-03-03T08:03:35.197Z,-3.1
2018-03-03T08:04:36.744Z,-3.0
2018-03-03T08:05:38.375Z,-3.0
2018-03-03T08:06:39.838Z,-3.0
2018-03-03T08:07:41.369Z,-3.1
2018-03-03T08:08:42.864Z,-3.1
2018-03-03T08:09:44.368Z,-3.0
2018-03-03T08:10:45.847Z,-3.3
2018-03-03T08:11:47.300Z,-3.2
2018-03-03T08:12:48.905Z,-3.0
2018-03-03T08:13:50.364Z,-3.0
2018-03-03T08:14:51.892Z,-2.9
2018-03-03T08:15:53.671Z,-2.9
2018-03-03T08:16:55.472Z,-2.8
2018-03-03T08:17:56.960Z,-2.7
2018-03-03T08:18:58.469Z,-2.8
2018-03-03T08:19:59.962Z,-2.8
2018-03-03T08:21:01.462Z,-2.9
2018-03-03T08:22:03.002Z,-2.7
2018-03-03T08:23:04.510Z,-2.8
2018-03-03T08:24:06.328Z,-2.6
2018-03-03T08:25:07.914Z,-2.5
2018-03-03T08:26:09.517Z,-2.4
2018-03-03T08:27:11.257Z,-2.6
2018-03-03T08:28:12.926Z,-2.6
2018-03-03T08:29:14.497Z,-2.9
2018-03-03T08:30:16.053Z,-3.1
2018-03-03T08:31:17.540Z,-3.2
2018-03-03T08:32:19.347Z,-3.2
2018-03-03T08:33:21.098Z,-3.1
2018-03-03T08:34:22.608Z,-3.1
2018-03-03T08:35:24.125Z,-2.9
2018-03-03T08:36:25.679Z,-2.6
2018-03-03T08:37:27.186Z,-2.7
2018-03-03T08:38:28.740Z,-2.8
2018-03-03T08:39:30.321Z,-2.8
2018-03-03T08:40:31.961Z,-2.6
2018-03-03T08:41:33.528Z,-2.7
2018-03-03T08:42:35.084Z,-2.8
2018-03-03T08:43:36.584Z,-2.7
2018-03-03T08:44:38.174Z,-2.6
2018-03-03T08:45:39.671Z,-2.6
2018-03-03T08:46:41.244Z,-2.7
2018-03-03T08:47:42.822Z,-2.6
2018-03-03T08:48:44.322Z,-2.7
2018-03-03T08:49:45.828Z,-2.7
2018-03-03T08:50:47.289Z,-2.6
2018-03-03T08:51:48.885Z,-2.5
2018-03-03T08:52:50.438Z,-2.6
2018-03-03T08:53:51.945Z,-2.5
2018-03-03T08:54:54.200Z,-2.5
2018-03-03T08:55:55.760Z,-2.4
2018-03-03T08:56:57.399Z,-2.4
2018-03-03T08:57:59.029Z,-2.3
2018-03-03T08:59:00.555Z,-2.5
2018-03-03T09:00:02.089Z,-2.6
2018-03-03T09:01:03.618Z,-2.6
2018-03-03T09:02:05.242Z,-2.5
2018-03-03T09:03:06.804Z,-2.4
2018-03-03T09:04:08.370Z,-2.3
2018-03-03T09:05:09.867Z,-2.3
2018-03-03T09:06:11.403Z,-2.3
2018-03-03T09:07:12.994Z,-2.4
2018-03-03T09:08:14.495Z,-2.6
2018-03-03T09:09:16.172Z,-2.5
2018-03-03T09:10:17.687Z,-2.5
2018-03-03T09:11:19.266Z,-2.5
2018-03-03T09:12:20.876Z,-2.4
2018-03-03T09:13:22.437Z,-2.5
2018-03-03T09:14:23.978Z,-2.4
2018-03-03T09:15:25.546Z,-2.4
2018-03-03T09:16:27.036Z,-2.6
2018-03-03T09:17:28.540Z,-2.6
2018-03-03T09:18:30.095Z,-2.6
2018-03-03T09:19:31.615Z,-2.7
2018-03-03T09:20:33.188Z,-2.9
2018-03-03T09:21:34.724Z,-3.0
2018-03-03T09:22:36.293Z,-3.0
2018-03-03T09:23:38.129Z,-3.3
2018-03-03T09:24:39.894Z,-3.2
2018-03-03T09:25:41.492Z,-3.1
2018-03-03T09:26:43.143Z,-2.9
2018-03-03T09:27:44.885Z,-2.9
2018-03-03T09:28:46.282Z,-2.7
2018-03-03T09:29:47.915Z,-2.6
2018-03-03T09:30:49.484Z,-2.5
2018-03-03T09:31:51.125Z,-2.4
2018-03-03T09:32:52.813Z,-2.4
2018-03-03T09:33:54.345Z,-2.4
2018-03-03T09:34:55.992Z,-2.2
2018-03-03T09:35:57.563Z,-2.4
2018-03-03T09:36:59.140Z,-2.3
2018-03-03T09:38:00.808Z,-2.3
2018-03-03T09:39:02.375Z,-2.3
2018-03-03T09:40:03.916Z,-2.2
2018-03-03T09:41:05.512Z,-2.3
2018-03-03T09:42:07.045Z,-2.3
2018-03-03T09:43:08.693Z,-2.3
2018-03-03T09:44:10.335Z,-2.2
2018-03-03T09:45:12.023Z,-2.3
2018-03-03T09:46:13.630Z,-2.2
2018-03-03T09:47:15.226Z,-2.2
2018-03-03T09:48:16.843Z,-2.2
2018-03-03T09:49:18.444Z,-2.2
2018-03-03T09:50:20.061Z,-2.3
2018-03-03T09:51:21.622Z,-2.2
2018-03-03T09:52:23.192Z,-2.4
2018-03-03T09:53:24.761Z,-2.3
2018-03-03T09:54:26.386Z,-2.4
2018-03-03T09:55:27.912Z,-2.3
2018-03-03T09:56:29.447Z,-2.4
2018-03-03T09:57:30.971Z,-2.5
2018-03-03T09:58:32.500Z,-2.8
2018-03-03T09:59:34.159Z,-2.7
2018-03-03T10:00:35.662Z,-2.5
2018-03-03T10:01:43.358Z,-2.4
2018-03-03T10:02:38.756Z,-2.4
2018-03-03T10:03:40.405Z,-2.4
2018-03-03T10:04:41.939Z,-2.4
2018-03-03T10:05:43.465Z,-2.4
2018-03-03T10:06:44.983Z,-2.3
2018-03-03T10:07:46.489Z,-2.2
2018-03-03T10:08:48.024Z,-2.1
2018-03-03T10:09:49.530Z,-2.1
2018-03-03T10:10:51.082Z,-2.1
2018-03-03T10:11:52.642Z,-2.0
2018-03-03T10:12:54.627Z,-1.9
2018-03-03T10:13:56.227Z,-2.0
2018-03-03T10:14:57.905Z,-1.8
2018-03-03T10:15:59.444Z,-1.7
2018-03-03T10:17:01.192Z,-1.4
2018-03-03T10:18:02.741Z,-1.2
2018-03-03T10:19:04.378Z,-1.1
2018-03-03T10:20:05.851Z,-0.9
2018-03-03T10:21:07.434Z,-0.7
2018-03-03T10:22:09.064Z,-0.7
2018-03-03T10:23:10.660Z,-0.3
2018-03-03T10:24:12.261Z,-0.1
2018-03-03T10:25:13.779Z,0.2
2018-03-03T10:26:15.303Z,0.4
2018-03-03T10:27:16.866Z,0.5
2018-03-03T10:28:18.443Z,0.2
2018-03-03T10:29:19.984Z,0.2
2018-03-03T10:30:21.556Z,-0.0
2018-03-03T10:31:23.168Z,0.1
2018-03-03T10:32:24.800Z,0.0
2018-03-03T10:33:26.326Z,0.2
2018-03-03T10:34:27.866Z,0.5
2018-03-03T10:35:29.379Z,0.3
2018-03-03T10:36:30.976Z,0.7
2018-03-03T10:37:32.514Z,0.7
2018-03-03T10:38:34.050Z,0.9
2018-03-03T10:39:35.524Z,1.0
2018-03-03T10:40:37.020Z,1.2
2018-03-03T10:41:38.506Z,0.9
2018-03-03T10:42:40.114Z,0.6
2018-03-03T10:43:41.615Z,-0.1
2018-03-03T10:44:43.092Z,0.1
2018-03-03T10:45:44.603Z,0.1
2018-03-03T10:46:46.068Z,0.2
2018-03-03T10:47:47.609Z,0.3
2018-03-03T10:48:49.111Z,0.3
2018-03-03T10:49:50.634Z,0.3
2018-03-03T10:50:52.177Z,0.2
2018-03-03T10:51:53.713Z,0.3
2018-03-03T10:52:55.208Z,0.4
2018-03-03T10:53:56.669Z,0.4
2018-03-03T10:54:58.218Z,0.5
2018-03-03T10:55:59.798Z,0.2
2018-03-03T10:57:01.293Z,0.0
2018-03-03T10:58:02.767Z,0.2
2018-03-03T10:59:04.258Z,0.2
2018-03-03T11:00:05.757Z,0.4
2018-03-03T11:01:07.307Z,0.4
2018-03-03T11:02:08.822Z,0.6
2018-03-03T11:03:10.389Z,0.4
2018-03-03T11:04:11.890Z,-0.1
2018-03-03T11:05:13.404Z,0.4
2018-03-03T11:06:14.914Z,1.0
2018-03-03T11:07:16.458Z,1.4
2018-03-03T11:08:18.001Z,1.8
2018-03-03T11:09:19.568Z,2.1
2018-03-03T11:10:21.096Z,2.3
2018-03-03T11:11:22.548Z,2.5
2018-03-03T11:12:24.072Z,2.9
2018-03-03T11:13:25.592Z,2.9
2018-03-03T11:14:27.232Z,3.2
2018-03-03T11:15:28.813Z,3.4
2018-03-03T11:16:30.286Z,3.3
2018-03-03T11:17:32.302Z,3.2
2018-03-03T11:18:33.892Z,3.2
2018-03-03T11:19:35.417Z,3.3
2018-03-03T11:20:36.906Z,3.4
2018-03-03T11:21:38.425Z,3.3
2018-03-03T11:22:39.927Z,3.2
2018-03-03T11:23:41.527Z,3.2
2018-03-03T11:24:43.160Z,3.3
2018-03-03T11:25:44.629Z,3.5
2018-03-03T11:26:46.257Z,3.6
2018-03-03T11:27:47.729Z,3.6
2018-03-03T11:28:49.180Z,3.7
2018-03-03T11:29:50.747Z,3.9
2018-03-03T11:30:52.208Z,4.3
2018-03-03T11:31:53.723Z,4.6
2018-03-03T11:32:55.240Z,4.8
2018-03-03T11:33:56.786Z,5.1
2018-03-03T11:34:58.307Z,5.2
2018-03-03T11:36:00.031Z,5.0
2018-03-03T11:37:01.952Z,5.3
2018-03-03T11:38:03.445Z,5.4
2018-03-03T11:39:04.998Z,5.5
2018-03-03T11:40:06.587Z,5.4
2018-03-03T11:41:08.066Z,5.3
2018-03-03T11:42:09.536Z,5.2
2018-03-03T11:43:10.980Z,5.2
2018-03-03T11:44:12.416Z,5.2
2018-03-03T11:45:13.843Z,4.9
2018-03-03T11:46:15.362Z,5.2
2018-03-03T11:47:16.773Z,5.4
2018-03-03T11:48:18.210Z,5.5
2018-03-03T11:49:19.636Z,5.6
2018-03-03T11:50:21.150Z,5.6
2018-03-03T11:51:22.557Z,5.8
2018-03-03T11:52:23.990Z,5.8
2018-03-03T11:53:25.519Z,6.0
2018-03-03T11:54:26.990Z,6.1
2018-03-03T11:55:28.502Z,6.4
2018-03-03T11:56:30.004Z,6.5
2018-03-03T11:57:31.510Z,6.6
2018-03-03T11:58:33.093Z,6.7
2018-03-03T11:59:34.685Z,6.8
2018-03-03T12:00:36.174Z,6.2
2018-03-03T12:01:37.749Z,6.3
2018-03-03T12:02:39.208Z,6.6
2018-03-03T12:03:40.715Z,6.9
2018-03-03T12:04:43.337Z,6.5
2018-03-03T12:05:44.932Z,6.3
2018-03-03T12:06:46.369Z,5.9
2018-03-03T12:07:47.891Z,5.6
2018-03-03T12:08:49.400Z,5.3
2018-03-03T12:09:50.903Z,5.4
2018-03-03T12:10:52.354Z,5.1
2018-03-03T12:11:53.827Z,4.9
2018-03-03T12:12:55.363Z,4.5
2018-03-03T12:13:56.924Z,4.2
2018-03-03T12:14:58.363Z,4.1
2018-03-03T12:15:59.794Z,4.0
2018-03-03T12:17:01.231Z,3.8
2018-03-03T12:18:02.702Z,3.5
2018-03-03T12:19:04.170Z,3.3
2018-03-03T12:20:06.143Z,3.3
2018-03-03T12:21:07.591Z,3.5
2018-03-03T12:22:09.142Z,3.8
2018-03-03T12:23:10.595Z,3.8
2018-03-03T12:24:12.504Z,3.9
2018-03-03T12:25:13.949Z,3.8
2018-03-03T12:26:15.393Z,3.9
2018-03-03T12:27:16.819Z,4.1
2018-03-03T12:28:18.263Z,4.2
2018-03-03T12:29:19.726Z,4.6
2018-03-03T12:30:21.261Z,4.5
2018-03-03T12:31:22.893Z,4.2
2018-03-03T12:32:24.370Z,4.0
2018-03-03T12:33:25.816Z,3.9
2018-03-03T12:34:27.234Z,4.2
2018-03-03T12:35:28.750Z,4.8
2018-03-03T12:36:30.282Z,5.7
2018-03-03T12:37:31.786Z,6.7
2018-03-03T12:38:33.245Z,7.2
2018-03-03T12:39:34.827Z,7.1
2018-03-03T12:40:36.250Z,7.0
2018-03-03T12:41:37.739Z,6.3
2018-03-03T12:42:39.156Z,5.7
2018-03-03T12:43:40.583Z,5.5
2018-03-03T12:44:42.023Z,5.3
2018-03-03T12:45:43.476Z,4.8
2018-03-03T12:46:44.908Z,4.2
2018-03-03T12:47:46.339Z,3.9
2018-03-03T12:48:47.810Z,3.7
2018-03-03T12:49:49.249Z,3.4
2018-03-03T12:50:50.680Z,3.3
2018-03-03T12:51:52.220Z,3.1
2018-03-03T12:52:53.733Z,2.9
2018-03-03T12:53:55.114Z,2.9
2018-03-03T12:54:56.630Z,2.8
2018-03-03T12:55:58.180Z,2.9
2018-03-03T12:56:59.919Z,2.9
2018-03-03T12:58:01.455Z,3.0
2018-03-03T12:59:03.732Z,3.2
2018-03-03T13:00:05.216Z,3.4
2018-03-03T13:01:06.796Z,3.8
2018-03-03T13:02:08.454Z,4.2
2018-03-03T13:03:10.305Z,4.6
2018-03-03T13:04:12.402Z,4.7
2018-03-03T13:05:13.913Z,4.8
2018-03-03T13:06:15.457Z,4.4
2018-03-03T13:07:16.928Z,4.3
2018-03-03T13:08:18.471Z,4.3
2018-03-03T13:09:19.979Z,4.1
2018-03-03T13:10:21.681Z,4.1
2018-03-03T13:11:23.333Z,4.0
2018-03-03T13:12:25.163Z,3.8
2018-03-03T13:13:26.663Z,3.9
2018-03-03T13:14:28.245Z,3.8
2018-03-03T13:15:29.758Z,3.8
2018-03-03T13:16:31.493Z,3.7
2018-03-03T13:17:33.045Z,3.6
2018-03-03T13:18:34.542Z,3.3
2018-03-03T13:19:36.112Z,3.2
2018-03-03T13:20:37.728Z,3.2
2018-03-03T13:21:39.204Z,3.1
2018-03-03T13:22:40.674Z,3.0
2018-03-03T13:23:42.122Z,2.7
2018-03-03T13:24:43.606Z,2.5
2018-03-03T13:25:45.053Z,2.4
2018-03-03T13:26:46.463Z,2.1
2018-03-03T13:27:47.943Z,2.0
2018-03-03T13:28:49.414Z,2.0
2018-03-03T13:29:50.934Z,2.0
2018-03-03T13:30:52.470Z,2.0
2018-03-03T13:31:53.982Z,2.0
2018-03-03T13:32:55.486Z,2.0
2018-03-03T13:33:57.008Z,2.0
2018-03-03T13:34:58.558Z,1.9
2018-03-03T13:36:00.002Z,1.9
2018-03-03T13:37:01.548Z,1.9
2018-03-03T13:38:03.094Z,2.0
2018-03-03T13:39:04.573Z,2.0
2018-03-03T13:40:06.132Z,2.0
2018-03-03T13:41:07.810Z,2.0
2018-03-03T13:42:09.343Z,2.0
2018-03-03T13:43:10.969Z,2.0
2018-03-03T13:44:12.566Z,2.0